createdAt,value
2022-08-19T00:02:11.367Z,65.94
2022-08-19T00:05:15.366Z,65.81
2022-08-19T00:08:17.896Z,66.04
2022-08-19T00:11:25.226Z,65.46
2022-08-19T00:14:32.217Z,65.29
2022-08-19T00:17:34.345Z,65.40
2022-08-19T00:20:37.406Z,65.72
2022-08-19T00:23:39.538Z,65.64
2022-08-19T00:26:42.695Z,65.20
2022-08-19T00:29:44.818Z,64.97
2022-08-19T00:32:47.976Z,65.14
2022-08-19T00:35:55.970Z,65.18
2022-08-19T00:38:58.405Z,65.43
2022-08-19T00:42:00.598Z,65.74
2022-08-19T00:45:03.279Z,66.27
2022-08-19T00:48:05.650Z,65.95
2022-08-19T00:51:17.192Z,66.15
2022-08-19T00:54:20.282Z,65.95
2022-08-19T00:57:36.382Z,65.75
2022-08-19T01:00:38.797Z,65.73
2022-08-19T01:03:57.880Z,65.69
2022-08-19T01:07:02.240Z,65.88
2022-08-19T01:10:06.755Z,66.15
2022-08-19T01:13:10.121Z,66.65
2022-08-19T01:16:13.192Z,66.43
2022-08-19T01:19:44.169Z,66.56
2022-08-19T01:22:51.284Z,66.51
2022-08-19T01:25:55.463Z,66.01
2022-08-19T01:29:00.937Z,65.97
2022-08-19T01:32:03.907Z,65.72
2022-08-19T01:35:06.803Z,65.98
2022-08-19T01:38:19.557Z,65.52
2022-08-19T01:41:22.031Z,65.63
2022-08-19T01:44:25.026Z,65.58
2022-08-19T01:47:27.122Z,65.70
2022-08-19T01:50:30.096Z,65.42
2022-08-19T01:53:33.758Z,65.78
2022-08-19T01:56:36.795Z,65.53
2022-08-19T01:59:40.250Z,65.85
2022-08-19T02:02:44.264Z,65.72
2022-08-19T02:05:46.786Z,65.59
2022-08-19T02:08:50.228Z,65.84
2022-08-19T02:11:54.379Z,66.19
2022-08-19T02:14:56.510Z,66.26
2022-08-19T02:17:59.267Z,66.45
2022-08-19T02:21:01.405Z,66.65
2022-08-19T02:24:03.906Z,66.64
2022-08-19T02:27:06.785Z,66.49
2022-08-19T02:30:14.227Z,66.30
2022-08-19T02:33:17.050Z,65.91
2022-08-19T02:36:21.254Z,65.88
2022-08-19T02:39:23.440Z,65.69
2022-08-19T02:42:26.036Z,65.60
2022-08-19T02:45:32.173Z,66.02
2022-08-19T02:48:34.269Z,66.17
2022-08-19T02:51:42.825Z,66.36
2022-08-19T02:54:45.396Z,66.33
2022-08-19T02:57:47.989Z,65.92
2022-08-19T03:00:53.630Z,66.26
2022-08-19T03:03:57.141Z,66.36
2022-08-19T03:07:07.116Z,66.46
2022-08-19T03:10:13.105Z,66.28
2022-08-19T03:13:17.859Z,66.35
2022-08-19T03:16:24.438Z,66.60
2022-08-19T03:19:26.955Z,66.62
2022-08-19T03:22:30.947Z,66.72
2022-08-19T03:25:38.634Z,66.84
2022-08-19T03:28:40.756Z,66.69
2022-08-19T03:31:52.424Z,66.51
2022-08-19T03:34:54.994Z,66.24
2022-08-19T03:37:57.439Z,65.58
2022-08-19T03:41:03.009Z,65.55
2022-08-19T03:44:09.394Z,65.72
2022-08-19T03:47:18.809Z,66.29
2022-08-19T03:50:21.058Z,66.51
2022-08-19T03:53:23.137Z,66.58
2022-08-19T03:56:26.897Z,66.60
2022-08-19T03:59:33.828Z,66.73
2022-08-19T04:02:35.949Z,66.61
2022-08-19T04:05:38.637Z,66.46
2022-08-19T04:08:42.711Z,66.51
2022-08-19T04:11:50.893Z,65.91
2022-08-19T04:14:53.003Z,65.66
2022-08-19T04:17:55.724Z,65.85
2022-08-19T04:20:57.960Z,66.44
2022-08-19T04:24:00.163Z,66.26
2022-08-19T04:27:03.575Z,65.91
2022-08-19T04:30:06.270Z,65.63
2022-08-19T04:33:09.171Z,65.33
2022-08-19T04:36:20.478Z,65.27
2022-08-19T04:39:49.651Z,65.13
2022-08-19T04:42:52.117Z,65.43
2022-08-19T04:45:56.793Z,65.31
2022-08-19T04:49:12.966Z,65.90
2022-08-19T04:52:15.414Z,66.02
2022-08-19T04:55:18.894Z,65.90
2022-08-19T04:58:20.988Z,65.92
2022-08-19T05:01:26.356Z,65.48
2022-08-19T05:04:31.523Z,65.26
2022-08-19T05:07:33.695Z,65.16
2022-08-19T05:10:40.413Z,65.13
2022-08-19T05:13:44.407Z,65.33
2022-08-19T05:16:46.447Z,68.41
2022-08-19T05:20:07.267Z,69.04
2022-08-19T05:23:12.781Z,70.02
2022-08-19T05:26:23.029Z,70.21
2022-08-19T05:29:27.348Z,70.71
2022-08-19T05:32:35.875Z,70.41
2022-08-19T05:35:40.054Z,70.97
2022-08-19T05:38:42.151Z,70.81
2022-08-19T05:41:45.248Z,71.34
2022-08-19T05:44:48.685Z,71.21
2022-08-19T05:47:50.722Z,70.97
2022-08-19T05:50:52.764Z,71.35
2022-08-19T05:53:54.816Z,71.29
2022-08-19T05:56:57.010Z,71.13
2022-08-19T06:00:01.205Z,71.26
2022-08-19T06:03:12.385Z,71.28
2022-08-19T06:06:17.001Z,71.42
2022-08-19T06:09:20.472Z,71.61
2022-08-19T06:12:25.456Z,71.81
2022-08-19T06:15:28.380Z,71.82
2022-08-19T06:18:30.482Z,71.63
2022-08-19T06:21:33.071Z,71.83
2022-08-19T06:24:36.327Z,71.89
2022-08-19T06:27:48.269Z,71.71
2022-08-19T06:31:07.106Z,72.13
2022-08-19T06:34:09.157Z,71.83
2022-08-19T06:37:13.062Z,72.09
2022-08-19T06:40:15.547Z,72.00
2022-08-19T06:43:18.551Z,72.11
2022-08-19T06:46:21.787Z,72.36
2022-08-19T06:49:31.855Z,71.93
2022-08-19T06:52:36.533Z,72.66
2022-08-19T06:55:40.206Z,72.45
2022-08-19T06:58:42.646Z,71.92
2022-08-19T07:01:51.376Z,71.83
2022-08-19T07:04:53.985Z,71.91
2022-08-19T07:08:01.643Z,71.99
2022-08-19T07:11:09.344Z,71.90
2022-08-19T07:14:19.214Z,70.32
2022-08-19T07:17:21.827Z,69.40
2022-08-19T07:20:28.508Z,69.52
2022-08-19T07:23:30.939Z,68.97
2022-08-19T07:26:39.729Z,68.84
2022-08-19T07:29:44.291Z,68.46
2022-08-19T07:32:46.441Z,68.44
2022-08-19T07:35:48.564Z,67.91
2022-08-19T07:38:52.215Z,68.11
2022-08-19T07:41:56.190Z,67.85
2022-08-19T07:44:59.431Z,67.77
2022-08-19T07:48:02.233Z,67.86
2022-08-19T07:51:08.439Z,67.49
2022-08-19T07:54:12.547Z,67.59
2022-08-19T07:57:14.799Z,67.14
2022-08-19T08:00:20.443Z,66.85
2022-08-19T08:03:47.067Z,67.55
2022-08-19T08:07:09.427Z,67.63
2022-08-19T08:10:21.329Z,67.30
2022-08-19T08:13:24.133Z,67.31
2022-08-19T08:16:30.857Z,67.27
2022-08-19T08:19:33.968Z,67.05
2022-08-19T08:22:54.995Z,67.53
2022-08-19T08:25:58.930Z,67.33
2022-08-19T08:29:01.147Z,67.62
2022-08-19T08:32:04.464Z,67.14
2022-08-19T08:35:19.229Z,67.20
2022-08-19T08:38:21.274Z,66.98
2022-08-19T08:41:56.952Z,66.87
2022-08-19T08:45:06.599Z,66.62
2022-08-19T08:48:40.013Z,66.81
2022-08-19T08:51:48.643Z,66.59
2022-08-19T08:55:10.103Z,66.43
2022-08-19T08:58:42.846Z,66.17
2022-08-19T09:01:44.927Z,65.93
2022-08-19T09:04:47.453Z,65.80
2022-08-19T09:07:58.822Z,65.75
2022-08-19T09:11:07.597Z,65.62
2022-08-19T09:14:29.146Z,65.40
2022-08-19T09:17:36.338Z,65.01
2022-08-19T09:20:42.957Z,64.79
2022-08-19T09:23:45.164Z,64.65
2022-08-19T09:26:52.853Z,64.56
2022-08-19T09:29:56.330Z,64.27
2022-08-19T09:32:59.631Z,64.07
2022-08-19T09:36:08.660Z,64.05
2022-08-19T09:39:14.833Z,63.97
2022-08-19T09:42:29.915Z,63.99
2022-08-19T09:45:33.497Z,63.89
2022-08-19T09:48:39.507Z,63.73
2022-08-19T09:51:41.603Z,63.53
2022-08-19T09:54:44.195Z,63.40
2022-08-19T09:57:46.700Z,63.10
2022-08-19T10:00:51.014Z,62.91
2022-08-19T10:03:57.087Z,62.90
2022-08-19T10:06:59.148Z,62.72
2022-08-19T10:10:02.116Z,62.47
2022-08-19T10:13:07.942Z,62.56
2022-08-19T10:16:16.716Z,62.79
2022-08-19T10:19:26.129Z,62.71
2022-08-19T10:22:28.506Z,63.05
2022-08-19T10:25:30.833Z,62.95
2022-08-19T10:28:39.448Z,63.20
2022-08-19T10:32:01.236Z,63.15
2022-08-19T10:35:08.771Z,62.89
2022-08-19T10:38:10.984Z,62.88
2022-08-19T10:41:17.687Z,62.95
2022-08-19T10:44:20.600Z,62.56
2022-08-19T10:47:26.135Z,62.44
2022-08-19T10:50:52.208Z,63.87
2022-08-19T10:53:54.560Z,64.04
2022-08-19T10:56:56.712Z,63.73
2022-08-19T10:59:59.927Z,63.22
2022-08-19T11:03:02.034Z,63.10
2022-08-19T11:06:07.455Z,62.87
2022-08-19T11:09:10.191Z,62.89
2022-08-19T11:12:13.656Z,62.75
2022-08-19T11:15:16.386Z,62.74
2022-08-19T11:18:18.579Z,62.76
2022-08-19T11:21:23.436Z,62.80
2022-08-19T11:24:26.957Z,62.42
2022-08-19T11:27:29.860Z,62.37
2022-08-19T11:30:32.806Z,62.33
2022-08-19T11:33:35.273Z,62.12
2022-08-19T11:36:40.916Z,61.95
2022-08-19T11:39:43.083Z,62.04
2022-08-19T11:42:57.663Z,61.80
2022-08-19T11:45:59.948Z,61.88
2022-08-19T11:49:03.947Z,61.76
2022-08-19T11:52:06.104Z,61.69
2022-08-19T11:55:14.680Z,61.58
2022-08-19T11:58:19.128Z,61.89
2022-08-19T12:01:23.483Z,61.89
2022-08-19T12:04:25.719Z,61.94
2022-08-19T12:07:28.383Z,61.96
2022-08-19T12:10:30.608Z,61.37
2022-08-19T12:13:32.820Z,61.54
2022-08-19T12:16:37.744Z,61.25
2022-08-19T12:19:41.876Z,60.90
2022-08-19T12:22:44.412Z,60.78
2022-08-19T12:25:52.467Z,60.57
2022-08-19T12:28:56.083Z,60.20
2022-08-19T12:32:02.245Z,60.55
2022-08-19T12:35:07.397Z,59.70
2022-08-19T12:38:09.836Z,59.85
2022-08-19T12:41:14.551Z,59.55
2022-08-19T12:44:17.572Z,59.44
2022-08-19T12:47:22.384Z,58.70
2022-08-19T12:50:24.813Z,59.48
2022-08-19T12:53:27.182Z,59.39
2022-08-19T12:56:29.261Z,59.64
2022-08-19T12:59:31.349Z,58.88
2022-08-19T13:02:38.690Z,58.99
2022-08-19T13:05:41.401Z,58.71
2022-08-19T13:08:43.485Z,59.13
2022-08-19T13:11:48.687Z,57.48
2022-08-19T13:14:51.897Z,57.46
2022-08-19T13:17:56.590Z,57.00
2022-08-19T13:21:04.364Z,56.26
2022-08-19T13:24:07.150Z,56.92
2022-08-19T13:27:09.300Z,56.91
2022-08-19T13:30:32.950Z,57.32
2022-08-19T13:33:36.342Z,56.98
2022-08-19T13:36:38.864Z,57.24
2022-08-19T13:39:41.063Z,57.13
2022-08-19T13:42:48.321Z,56.56
2022-08-19T13:45:56.802Z,55.68
2022-08-19T13:48:59.094Z,56.41
2022-08-19T13:52:01.299Z,56.48
2022-08-19T13:55:04.256Z,56.65
2022-08-19T13:58:06.985Z,56.87
2022-08-19T14:01:09.274Z,57.04
2022-08-19T14:04:11.429Z,57.50
2022-08-19T14:07:13.962Z,58.03
2022-08-19T14:10:17.484Z,58.32
2022-08-19T14:13:21.806Z,58.67
2022-08-19T14:16:23.877Z,58.76
2022-08-19T14:19:26.009Z,58.44
2022-08-19T14:22:32.106Z,58.71
2022-08-19T14:25:34.992Z,58.73
2022-08-19T14:28:37.212Z,58.38
2022-08-19T14:31:43.404Z,57.64
2022-08-19T14:34:48.875Z,57.61
2022-08-19T14:37:54.830Z,57.45
2022-08-19T14:40:58.145Z,57.27
2022-08-19T14:44:02.243Z,57.58
2022-08-19T14:47:04.483Z,57.85
2022-08-19T14:50:17.822Z,57.79
2022-08-19T14:53:20.597Z,57.80
2022-08-19T14:56:25.745Z,57.90
2022-08-19T14:59:27.804Z,57.78
2022-08-19T15:02:34.701Z,58.07
2022-08-19T15:05:37.521Z,58.20
2022-08-19T15:08:41.890Z,57.78
2022-08-19T15:11:44.104Z,57.77
2022-08-19T15:14:51.025Z,58.04
2022-08-19T15:17:55.143Z,58.10
2022-08-19T15:20:57.742Z,58.23
2022-08-19T15:24:01.316Z,58.56
2022-08-19T15:27:03.943Z,58.54
2022-08-19T15:30:12.115Z,58.79
2022-08-19T15:33:20.483Z,59.09
2022-08-19T15:36:23.795Z,59.29
2022-08-19T15:39:26.149Z,59.45
2022-08-19T15:42:29.985Z,58.63
2022-08-19T15:45:32.918Z,57.55
2022-08-19T15:48:35.059Z,55.67
2022-08-19T15:51:39.159Z,54.22
2022-08-19T15:54:41.342Z,53.36
2022-08-19T15:58:01.871Z,52.87
2022-08-19T16:01:26.855Z,53.11
2022-08-19T16:04:47.896Z,52.14
2022-08-19T16:07:50.960Z,53.48
2022-08-19T16:10:53.148Z,53.77
2022-08-19T16:13:55.594Z,54.01
2022-08-19T16:17:00.198Z,54.92
2022-08-19T16:20:11.091Z,55.17
2022-08-19T16:23:13.160Z,55.31
2022-08-19T16:26:17.542Z,54.84
2022-08-19T16:29:34.790Z,54.81
2022-08-19T16:32:43.915Z,54.79
2022-08-19T16:35:46.714Z,54.46
2022-08-19T16:38:58.295Z,54.39
2022-08-19T16:42:00.928Z,54.86
2022-08-19T16:45:04.425Z,55.30
2022-08-19T16:48:06.551Z,55.50
2022-08-19T16:51:14.199Z,55.52
2022-08-19T16:54:16.325Z,55.58
2022-08-19T16:57:19.191Z,55.75
2022-08-19T17:00:21.323Z,55.91
2022-08-19T17:03:27.840Z,56.33
2022-08-19T17:06:39.568Z,56.43
2022-08-19T17:09:41.680Z,56.68
2022-08-19T17:12:44.575Z,56.97
2022-08-19T17:15:46.710Z,57.00
2022-08-19T17:18:52.664Z,57.19
2022-08-19T17:21:54.756Z,57.15
2022-08-19T17:24:58.348Z,57.29
2022-08-19T17:28:10.240Z,57.29
2022-08-19T17:31:15.388Z,57.30
2022-08-19T17:34:17.496Z,57.46
2022-08-19T17:37:19.692Z,57.42
2022-08-19T17:40:23.898Z,57.39
2022-08-19T17:43:33.456Z,57.52
2022-08-19T17:46:36.988Z,57.59
2022-08-19T17:49:39.196Z,57.61
2022-08-19T17:52:41.286Z,57.64
2022-08-19T17:55:43.667Z,57.93
2022-08-19T17:58:57.777Z,57.94
2022-08-19T18:02:03.857Z,58.08
2022-08-19T18:05:06.787Z,58.04
2022-08-19T18:08:11.121Z,58.17
2022-08-19T18:11:13.803Z,58.16
2022-08-19T18:14:15.912Z,58.21
2022-08-19T18:17:19.290Z,58.27
2022-08-19T18:20:21.535Z,58.16
2022-08-19T18:23:45.247Z,58.45
2022-08-19T18:26:48.741Z,58.38
2022-08-19T18:29:50.936Z,58.42
2022-08-19T18:32:53.648Z,58.65
2022-08-19T18:35:55.812Z,58.45
2022-08-19T18:39:16.395Z,58.77
2022-08-19T18:42:37.715Z,58.70
2022-08-19T18:45:59.560Z,59.06
2022-08-19T18:49:05.121Z,59.01
2022-08-19T18:52:07.490Z,59.39
2022-08-19T18:55:09.906Z,59.40
2022-08-19T18:58:12.010Z,59.30
2022-08-19T19:01:29.767Z,59.28
2022-08-19T19:04:37.413Z,59.18
2022-08-19T19:07:39.816Z,59.16
2022-08-19T19:10:42.223Z,59.21
2022-08-19T19:13:46.904Z,59.16
2022-08-19T19:16:49.258Z,59.26
2022-08-19T19:19:51.490Z,59.35
2022-08-19T19:22:56.040Z,59.40
2022-08-19T19:26:00.866Z,59.33
2022-08-19T19:29:03.118Z,59.35
2022-08-19T19:32:08.310Z,59.51
2022-08-19T19:35:10.664Z,59.45
2022-08-19T19:38:12.796Z,59.40
2022-08-19T19:41:17.597Z,59.44
2022-08-19T19:44:32.554Z,59.47
2022-08-19T19:47:34.789Z,59.52
2022-08-19T19:50:36.944Z,59.51
2022-08-19T19:53:39.340Z,59.51
2022-08-19T19:56:50.249Z,59.38
2022-08-19T19:59:52.358Z,59.41
2022-08-19T20:02:55.825Z,59.55
2022-08-19T20:05:59.205Z,59.61
2022-08-19T20:09:19.485Z,59.55
2022-08-19T20:12:22.021Z,59.56
2022-08-19T20:15:24.616Z,59.75
2022-08-19T20:18:26.740Z,59.70
2022-08-19T20:21:32.300Z,59.72
2022-08-19T20:24:36.147Z,59.71
2022-08-19T20:27:39.976Z,59.78
2022-08-19T20:30:46.437Z,59.80
2022-08-19T20:33:50.445Z,59.81
2022-08-19T20:36:52.615Z,59.93
2022-08-19T20:39:55.045Z,59.95
2022-08-19T20:42:57.508Z,60.06
2022-08-19T20:45:59.757Z,60.01
2022-08-19T20:49:02.057Z,59.99
2022-08-19T20:52:08.070Z,60.02
2022-08-19T20:55:11.562Z,59.96
2022-08-19T20:58:14.183Z,59.97
2022-08-19T21:01:16.329Z,59.87
2022-08-19T21:04:19.577Z,59.88
2022-08-19T21:07:22.652Z,59.93
2022-08-19T21:10:28.196Z,59.83
2022-08-19T21:13:30.363Z,59.74
2022-08-19T21:16:33.827Z,59.76
2022-08-19T21:19:36.090Z,59.77
2022-08-19T21:22:38.763Z,59.75
2022-08-19T21:25:41.394Z,59.69
2022-08-19T21:28:52.644Z,59.74
2022-08-19T21:31:54.760Z,59.80
2022-08-19T21:34:56.933Z,59.73
2022-08-19T21:37:59.059Z,59.71
2022-08-19T21:41:05.766Z,59.81
2022-08-19T21:44:08.336Z,59.82
2022-08-19T21:47:10.414Z,59.81
2022-08-19T21:50:13.319Z,59.82
2022-08-19T21:53:17.887Z,59.76
2022-08-19T21:56:20.080Z,59.76
2022-08-19T21:59:22.217Z,59.65
2022-08-19T22:02:24.339Z,59.77
2022-08-19T22:05:27.358Z,59.77
2022-08-19T22:08:31.368Z,59.71
2022-08-19T22:11:34.624Z,59.70
2022-08-19T22:14:37.689Z,59.64
2022-08-19T22:17:40.656Z,59.66
2022-08-19T22:20:44.616Z,59.72
2022-08-19T22:23:47.550Z,59.67
2022-08-19T22:26:49.744Z,59.68
2022-08-19T22:29:52.674Z,59.70
2022-08-19T22:33:00.918Z,59.75
2022-08-19T22:36:04.589Z,59.61
2022-08-19T22:39:06.758Z,59.64
2022-08-19T22:42:09.203Z,59.73
2022-08-19T22:45:12.902Z,59.64
2022-08-19T22:48:17.357Z,59.71
2022-08-19T22:51:38.270Z,59.70
2022-08-19T22:54:40.368Z,59.68
2022-08-19T22:57:43.518Z,59.77
2022-08-19T23:00:45.632Z,59.86
2022-08-19T23:03:48.023Z,59.82
2022-08-19T23:06:52.821Z,59.77
2022-08-19T23:09:54.905Z,59.84
2022-08-19T23:12:59.246Z,59.85
2022-08-19T23:16:01.433Z,59.93
2022-08-19T23:19:05.244Z,59.87
2022-08-19T23:22:08.311Z,59.83
2022-08-19T23:25:17.929Z,59.94
2022-08-19T23:28:39.237Z,59.92
2022-08-19T23:31:41.618Z,60.01
2022-08-19T23:34:44.113Z,60.02
2022-08-19T23:37:46.856Z,59.96
2022-08-19T23:40:49.745Z,59.90
2022-08-19T23:43:54.880Z,59.71
2022-08-19T23:46:57.357Z,59.69
2022-08-19T23:50:01.271Z,59.82
2022-08-19T23:53:04.051Z,59.78
2022-08-19T23:56:07.423Z,59.82
2022-08-19T23:59:09.561Z,59.81
